sensor_id;sensor_type;location;lat;lon;timestamp;temperature;humidity
17948;DHT22;9099;47.958;11.366;2022-08-19T00:00:22;19.20;99.90
17948;DHT22;9099;47.958;11.366;2022-08-19T00:02:49;19.20;99.90
17948;DHT22;9099;47.958;11.366;2022-08-19T00:05:17;19.20;99.90
17948;DHT22;9099;47.958;11.366;2022-08-19T00:07:44;19.10;99.90
17948;DHT22;9099;47.958;11.366;2022-08-19T00:10:15;19.10;99.90
17948;DHT22;9099;47.958;11.366;2022-08-19T00:12:42;19.10;99.90
17948;DHT22;9099;47.958;11.366;2022-08-19T00:15:12;19.20;99.90
17948;DHT22;9099;47.958;11.366;2022-08-19T00:17:40;19.10;99.90
17948;DHT22;9099;47.958;11.366;2022-08-19T00:20:08;19.10;99.90
17948;DHT22;9099;47.958;11.366;2022-08-19T00:22:36;19.20;99.90
17948;DHT22;9099;47.958;11.366;2022-08-19T00:25:04;19.10;99.90
17948;DHT22;9099;47.958;11.366;2022-08-19T00:27:33;19.20;99.90
17948;DHT22;9099;47.958;11.366;2022-08-19T00:30:01;19.20;99.90
17948;DHT22;9099;47.958;11.366;2022-08-19T00:32:29;19.20;99.90
17948;DHT22;9099;47.958;11.366;2022-08-19T00:34:56;19.30;99.90
17948;DHT22;9099;47.958;11.366;2022-08-19T00:37:24;19.20;99.90
17948;DHT22;9099;47.958;11.366;2022-08-19T00:39:52;19.10;99.90
17948;DHT22;9099;47.958;11.366;2022-08-19T00:42:21;19.00;99.90
17948;DHT22;9099;47.958;11.366;2022-08-19T00:44:49;19.00;99.90
17948;DHT22;9099;47.958;11.366;2022-08-19T00:47:17;19.00;99.90
17948;DHT22;9099;47.958;11.366;2022-08-19T00:49:48;19.00;99.90
17948;DHT22;9099;47.958;11.366;2022-08-19T00:52:20;19.00;99.90
17948;DHT22;9099;47.958;11.366;2022-08-19T00:54:48;19.00;99.90
17948;DHT22;9099;47.958;11.366;2022-08-19T00:57:19;19.00;99.90
17948;DHT22;9099;47.958;11.366;2022-08-19T00:59:52;19.00;99.90
17948;DHT22;9099;47.958;11.366;2022-08-19T01:02:20;19.00;99.90
17948;DHT22;9099;47.958;11.366;2022-08-19T01:04:47;18.90;99.90
17948;DHT22;9099;47.958;11.366;2022-08-19T01:07:15;18.90;99.90
17948;DHT22;9099;47.958;11.366;2022-08-19T01:09:42;18.90;99.90
17948;DHT22;9099;47.958;11.366;2022-08-19T01:12:09;18.90;99.90
17948;DHT22;9099;47.958;11.366;2022-08-19T01:14:38;18.90;99.90
17948;DHT22;9099;47.958;11.366;2022-08-19T01:17:08;18.90;99.90
17948;DHT22;9099;47.958;11.366;2022-08-19T01:19:37;18.90;99.90
17948;DHT22;9099;47.958;11.366;2022-08-19T01:22:10;18.90;99.90
17948;DHT22;9099;47.958;11.366;2022-08-19T01:24:39;18.90;99.90
17948;DHT22;9099;47.958;11.366;2022-08-19T01:27:07;18.90;99.90
17948;DHT22;9099;47.958;11.366;2022-08-19T01:29:38;18.90;99.90
17948;DHT22;9099;47.958;11.366;2022-08-19T01:32:06;18.90;99.90
17948;DHT22;9099;47.958;11.366;2022-08-19T01:34:33;18.90;99.90
17948;DHT22;9099;47.958;11.366;2022-08-19T01:37:06;18.90;99.90
17948;DHT22;9099;47.958;11.366;2022-08-19T01:39:34;19.00;99.90
17948;DHT22;9099;47.958;11.366;2022-08-19T01:42:03;19.00;99.90
17948;DHT22;9099;47.958;11.366;2022-08-19T01:44:31;18.90;99.90
17948;DHT22;9099;47.958;11.366;2022-08-19T01:46:59;18.90;99.90
17948;DHT22;9099;47.958;11.366;2022-08-19T01:49:26;18.90;99.90
17948;DHT22;9099;47.958;11.366;2022-08-19T01:51:53;18.80;99.90
17948;DHT22;9099;47.958;11.366;2022-08-19T01:54:22;18.80;99.90
17948;DHT22;9099;47.958;11.366;2022-08-19T01:56:50;18.80;99.90
17948;DHT22;9099;47.958;11.366;2022-08-19T01:59:21;18.80;99.90
17948;DHT22;9099;47.958;11.366;2022-08-19T02:01:49;18.80;99.90
17948;DHT22;9099;47.958;11.366;2022-08-19T02:04:16;18.80;99.90
17948;DHT22;9099;47.958;11.366;2022-08-19T02:06:43;18.90;99.90
17948;DHT22;9099;47.958;11.366;2022-08-19T02:09:10;18.90;99.90
17948;DHT22;9099;47.958;11.366;2022-08-19T02:11:38;18.90;99.90
17948;DHT22;9099;47.958;11.366;2022-08-19T02:14:06;19.00;99.90
17948;DHT22;9099;47.958;11.366;2022-08-19T02:16:36;19.00;99.90
17948;DHT22;9099;47.958;11.366;2022-08-19T02:19:04;19.00;99.90
17948;DHT22;9099;47.958;11.366;2022-08-19T02:21:31;18.90;99.90
17948;DHT22;9099;47.958;11.366;2022-08-19T02:23:59;19.00;99.90
17948;DHT22;9099;47.958;11.366;2022-08-19T02:26:26;18.90;99.90
17948;DHT22;9099;47.958;11.366;2022-08-19T02:28:54;19.00;99.90
17948;DHT22;9099;47.958;11.366;2022-08-19T02:31:24;19.10;99.90
17948;DHT22;9099;47.958;11.366;2022-08-19T02:33:53;19.00;99.90
17948;DHT22;9099;47.958;11.366;2022-08-19T02:36:21;18.90;99.90
17948;DHT22;9099;47.958;11.366;2022-08-19T02:38:48;18.90;99.90
17948;DHT22;9099;47.958;11.366;2022-08-19T02:41:17;18.80;99.90
17948;DHT22;9099;47.958;11.366;2022-08-19T02:43:44;18.80;99.90
17948;DHT22;9099;47.958;11.366;2022-08-19T02:46:14;18.80;99.90
17948;DHT22;9099;47.958;11.366;2022-08-19T02:48:43;18.70;99.90
17948;DHT22;9099;47.958;11.366;2022-08-19T02:51:16;18.70;99.90
17948;DHT22;9099;47.958;11.366;2022-08-19T02:53:43;18.70;99.90
17948;DHT22;9099;47.958;11.366;2022-08-19T02:56:10;18.70;99.90
17948;DHT22;9099;47.958;11.366;2022-08-19T02:58:37;18.80;99.90
17948;DHT22;9099;47.958;11.366;2022-08-19T03:01:04;18.80;99.90
17948;DHT22;9099;47.958;11.366;2022-08-19T03:03:31;18.80;99.90
17948;DHT22;9099;47.958;11.366;2022-08-19T03:06:11;18.80;99.90
17948;DHT22;9099;47.958;11.366;2022-08-19T03:08:41;18.80;99.90
17948;DHT22;9099;47.958;11.366;2022-08-19T03:11:13;18.80;99.90
17948;DHT22;9099;47.958;11.366;2022-08-19T03:13:40;18.90;99.90
17948;DHT22;9099;47.958;11.366;2022-08-19T03:16:09;18.80;99.90
17948;DHT22;9099;47.958;11.366;2022-08-19T03:18:36;18.80;99.90
17948;DHT22;9099;47.958;11.366;2022-08-19T03:21:03;18.70;99.90
17948;DHT22;9099;47.958;11.366;2022-08-19T03:23:31;18.70;99.90
17948;DHT22;9099;47.958;11.366;2022-08-19T03:26:02;18.70;99.90
17948;DHT22;9099;47.958;11.366;2022-08-19T03:28:30;18.70;99.90
17948;DHT22;9099;47.958;11.366;2022-08-19T03:30:59;18.70;99.90
17948;DHT22;9099;47.958;11.366;2022-08-19T03:33:28;18.80;99.90
17948;DHT22;9099;47.958;11.366;2022-08-19T03:36:04;18.80;99.90
17948;DHT22;9099;47.958;11.366;2022-08-19T03:38:33;18.80;99.90
17948;DHT22;9099;47.958;11.366;2022-08-19T03:41:07;18.80;99.90
17948;DHT22;9099;47.958;11.366;2022-08-19T03:43:35;18.80;99.90
17948;DHT22;9099;47.958;11.366;2022-08-19T03:46:04;18.80;99.90
17948;DHT22;9099;47.958;11.366;2022-08-19T03:48:33;18.80;99.90
17948;DHT22;9099;47.958;11.366;2022-08-19T03:51:00;18.80;99.90
17948;DHT22;9099;47.958;11.366;2022-08-19T03:53:28;18.80;99.90
17948;DHT22;9099;47.958;11.366;2022-08-19T03:55:56;18.80;99.90
17948;DHT22;9099;47.958;11.366;2022-08-19T03:58:27;18.90;99.90
17948;DHT22;9099;47.958;11.366;2022-08-19T04:00:54;18.80;99.90
17948;DHT22;9099;47.958;11.366;2022-08-19T04:03:22;18.80;99.90
17948;DHT22;9099;47.958;11.366;2022-08-19T04:05:49;18.80;99.90
17948;DHT22;9099;47.958;11.366;2022-08-19T04:08:16;18.80;99.90
17948;DHT22;9099;47.958;11.366;2022-08-19T04:10:46;18.70;99.90
17948;DHT22;9099;47.958;11.366;2022-08-19T04:13:13;18.70;99.90
17948;DHT22;9099;47.958;11.366;2022-08-19T04:15:43;18.80;99.90
17948;DHT22;9099;47.958;11.366;2022-08-19T04:18:13;18.80;99.90
17948;DHT22;9099;47.958;11.366;2022-08-19T04:20:44;18.80;99.90
17948;DHT22;9099;47.958;11.366;2022-08-19T04:23:12;18.80;99.90
17948;DHT22;9099;47.958;11.366;2022-08-19T04:25:42;18.80;99.90
17948;DHT22;9099;47.958;11.366;2022-08-19T04:28:12;18.90;99.90
17948;DHT22;9099;47.958;11.366;2022-08-19T04:30:43;18.90;99.90
17948;DHT22;9099;47.958;11.366;2022-08-19T04:33:13;18.80;99.90
17948;DHT22;9099;47.958;11.366;2022-08-19T04:35:43;18.80;99.90
17948;DHT22;9099;47.958;11.366;2022-08-19T04:38:11;18.90;99.90
17948;DHT22;9099;47.958;11.366;2022-08-19T04:40:40;18.90;99.90
17948;DHT22;9099;47.958;11.366;2022-08-19T04:43:26;18.90;99.90
17948;DHT22;9099;47.958;11.366;2022-08-19T04:45:55;19.00;99.90
17948;DHT22;9099;47.958;11.366;2022-08-19T04:48:23;18.90;99.90
17948;DHT22;9099;47.958;11.366;2022-08-19T04:50:52;19.00;99.90
17948;DHT22;9099;47.958;11.366;2022-08-19T04:53:23;19.00;99.90
17948;DHT22;9099;47.958;11.366;2022-08-19T04:55:54;19.00;99.90
17948;DHT22;9099;47.958;11.366;2022-08-19T04:58:22;19.00;99.90
17948;DHT22;9099;47.958;11.366;2022-08-19T05:00:49;19.00;99.90
17948;DHT22;9099;47.958;11.366;2022-08-19T05:03:17;18.90;99.90
17948;DHT22;9099;47.958;11.366;2022-08-19T05:05:45;19.00;99.90
17948;DHT22;9099;47.958;11.366;2022-08-19T05:08:16;19.00;99.90
17948;DHT22;9099;47.958;11.366;2022-08-19T05:10:46;19.10;99.90
17948;DHT22;9099;47.958;11.366;2022-08-19T05:13:13;19.10;99.90
17948;DHT22;9099;47.958;11.366;2022-08-19T05:15:42;19.10;99.90
17948;DHT22;9099;47.958;11.366;2022-08-19T05:18:09;19.20;99.90
17948;DHT22;9099;47.958;11.366;2022-08-19T05:20:56;19.20;99.90
17948;DHT22;9099;47.958;11.366;2022-08-19T05:23:40;19.30;99.90
17948;DHT22;9099;47.958;11.366;2022-08-19T05:26:07;19.30;99.90
17948;DHT22;9099;47.958;11.366;2022-08-19T05:28:36;19.30;99.90
17948;DHT22;9099;47.958;11.366;2022-08-19T05:31:03;19.30;99.90
17948;DHT22;9099;47.958;11.366;2022-08-19T05:33:30;19.30;99.90
17948;DHT22;9099;47.958;11.366;2022-08-19T05:36:00;19.20;99.90
17948;DHT22;9099;47.958;11.366;2022-08-19T05:38:27;19.20;99.90
17948;DHT22;9099;47.958;11.366;2022-08-19T05:40:55;19.30;99.90
17948;DHT22;9099;47.958;11.366;2022-08-19T05:43:22;19.30;99.90
17948;DHT22;9099;47.958;11.366;2022-08-19T05:45:49;19.30;99.90
17948;DHT22;9099;47.958;11.366;2022-08-19T05:48:16;19.20;99.90
17948;DHT22;9099;47.958;11.366;2022-08-19T05:50:46;19.20;99.90
17948;DHT22;9099;47.958;11.366;2022-08-19T05:53:17;19.20;99.90
17948;DHT22;9099;47.958;11.366;2022-08-19T05:55:44;19.30;99.90
17948;DHT22;9099;47.958;11.366;2022-08-19T05:58:11;19.30;99.90
17948;DHT22;9099;47.958;11.366;2022-08-19T06:00:38;19.30;99.90
17948;DHT22;9099;47.958;11.366;2022-08-19T06:03:05;19.40;99.90
17948;DHT22;9099;47.958;11.366;2022-08-19T06:05:32;19.40;99.90
17948;DHT22;9099;47.958;11.366;2022-08-19T06:07:59;19.40;99.90
17948;DHT22;9099;47.958;11.366;2022-08-19T06:10:28;19.40;99.90
17948;DHT22;9099;47.958;11.366;2022-08-19T06:12:55;19.40;99.90
17948;DHT22;9099;47.958;11.366;2022-08-19T06:15:22;19.40;99.90
17948;DHT22;9099;47.958;11.366;2022-08-19T06:17:51;19.40;99.90
17948;DHT22;9099;47.958;11.366;2022-08-19T06:20:18;19.40;99.90
17948;DHT22;9099;47.958;11.366;2022-08-19T06:22:47;19.30;99.90
17948;DHT22;9099;47.958;11.366;2022-08-19T06:25:17;19.30;99.90
17948;DHT22;9099;47.958;11.366;2022-08-19T06:27:45;19.30;99.90
17948;DHT22;9099;47.958;11.366;2022-08-19T06:30:13;19.40;99.90
17948;DHT22;9099;47.958;11.366;2022-08-19T06:32:40;19.40;99.90
17948;DHT22;9099;47.958;11.366;2022-08-19T06:35:07;19.40;99.90
17948;DHT22;9099;47.958;11.366;2022-08-19T06:37:36;19.40;99.90
17948;DHT22;9099;47.958;11.366;2022-08-19T06:40:04;19.40;99.90
17948;DHT22;9099;47.958;11.366;2022-08-19T06:42:31;19.40;99.90
17948;DHT22;9099;47.958;11.366;2022-08-19T06:45:00;19.40;99.90
17948;DHT22;9099;47.958;11.366;2022-08-19T06:47:29;19.40;99.90
17948;DHT22;9099;47.958;11.366;2022-08-19T06:49:59;19.50;99.90
17948;DHT22;9099;47.958;11.366;2022-08-19T06:52:28;19.40;99.90
17948;DHT22;9099;47.958;11.366;2022-08-19T06:54:55;19.40;99.90
17948;DHT22;9099;47.958;11.366;2022-08-19T06:57:23;19.50;99.90
17948;DHT22;9099;47.958;11.366;2022-08-19T06:59:51;19.50;99.90
17948;DHT22;9099;47.958;11.366;2022-08-19T07:02:20;19.50;99.90
17948;DHT22;9099;47.958;11.366;2022-08-19T07:04:47;19.50;99.90
17948;DHT22;9099;47.958;11.366;2022-08-19T07:07:14;19.60;99.90
17948;DHT22;9099;47.958;11.366;2022-08-19T07:09:43;19.60;99.90
17948;DHT22;9099;47.958;11.366;2022-08-19T07:12:12;19.70;99.90
17948;DHT22;9099;47.958;11.366;2022-08-19T07:14:41;19.70;99.90
17948;DHT22;9099;47.958;11.366;2022-08-19T07:17:11;19.70;99.90
17948;DHT22;9099;47.958;11.366;2022-08-19T07:19:40;19.70;99.90
17948;DHT22;9099;47.958;11.366;2022-08-19T07:22:08;19.80;99.90
17948;DHT22;9099;47.958;11.366;2022-08-19T07:24:37;19.80;99.90
17948;DHT22;9099;47.958;11.366;2022-08-19T07:27:05;19.80;99.90
17948;DHT22;9099;47.958;11.366;2022-08-19T07:29:34;19.80;99.90
17948;DHT22;9099;47.958;11.366;2022-08-19T07:32:03;19.90;99.90
17948;DHT22;9099;47.958;11.366;2022-08-19T07:34:31;19.90;99.90
17948;DHT22;9099;47.958;11.366;2022-08-19T07:37:01;19.90;99.90
17948;DHT22;9099;47.958;11.366;2022-08-19T07:39:32;20.00;99.90
17948;DHT22;9099;47.958;11.366;2022-08-19T07:42:01;20.10;99.90
17948;DHT22;9099;47.958;11.366;2022-08-19T07:44:31;20.10;99.90
17948;DHT22;9099;47.958;11.366;2022-08-19T07:46:59;20.10;99.90
17948;DHT22;9099;47.958;11.366;2022-08-19T07:49:27;20.00;99.90
17948;DHT22;9099;47.958;11.366;2022-08-19T07:51:57;20.00;99.90
17948;DHT22;9099;47.958;11.366;2022-08-19T07:54:27;20.00;99.90
17948;DHT22;9099;47.958;11.366;2022-08-19T07:56:55;20.00;99.90
17948;DHT22;9099;47.958;11.366;2022-08-19T07:59:23;20.00;99.90
17948;DHT22;9099;47.958;11.366;2022-08-19T08:01:50;20.00;99.90
17948;DHT22;9099;47.958;11.366;2022-08-19T08:04:18;20.00;99.90
17948;DHT22;9099;47.958;11.366;2022-08-19T08:07:03;20.00;99.90
17948;DHT22;9099;47.958;11.366;2022-08-19T08:09:51;19.90;99.90
17948;DHT22;9099;47.958;11.366;2022-08-19T08:12:22;19.90;99.90
17948;DHT22;9099;47.958;11.366;2022-08-19T08:14:55;19.80;99.90
17948;DHT22;9099;47.958;11.366;2022-08-19T08:17:25;19.70;99.90
17948;DHT22;9099;47.958;11.366;2022-08-19T08:19:53;19.70;99.90
17948;DHT22;9099;47.958;11.366;2022-08-19T08:22:22;19.80;99.90
17948;DHT22;9099;47.958;11.366;2022-08-19T08:25:08;19.80;99.90
17948;DHT22;9099;47.958;11.366;2022-08-19T08:27:35;19.70;99.90
17948;DHT22;9099;47.958;11.366;2022-08-19T08:30:06;19.80;99.90
17948;DHT22;9099;47.958;11.366;2022-08-19T08:32:34;19.80;99.90
17948;DHT22;9099;47.958;11.366;2022-08-19T08:35:03;19.70;99.90
17948;DHT22;9099;47.958;11.366;2022-08-19T08:37:30;19.60;99.90
17948;DHT22;9099;47.958;11.366;2022-08-19T08:39:57;19.50;99.90
17948;DHT22;9099;47.958;11.366;2022-08-19T08:42:32;19.60;99.90
17948;DHT22;9099;47.958;11.366;2022-08-19T08:45:03;19.60;99.90
17948;DHT22;9099;47.958;11.366;2022-08-19T08:47:38;19.60;99.90
17948;DHT22;9099;47.958;11.366;2022-08-19T08:50:09;19.60;99.90
17948;DHT22;9099;47.958;11.366;2022-08-19T08:52:43;19.50;99.90
17948;DHT22;9099;47.958;11.366;2022-08-19T08:55:14;19.40;99.90
17948;DHT22;9099;47.958;11.366;2022-08-19T08:57:50;19.30;99.90
17948;DHT22;9099;47.958;11.366;2022-08-19T09:00:21;19.40;99.90
17948;DHT22;9099;47.958;11.366;2022-08-19T09:02:48;19.40;99.90
17948;DHT22;9099;47.958;11.366;2022-08-19T09:05:15;19.40;99.90
17948;DHT22;9099;47.958;11.366;2022-08-19T09:07:57;19.30;99.90
17948;DHT22;9099;47.958;11.366;2022-08-19T09:10:29;19.30;99.90
17948;DHT22;9099;47.958;11.366;2022-08-19T09:13:08;19.20;99.90
17948;DHT22;9099;47.958;11.366;2022-08-19T09:15:42;19.20;99.90
17948;DHT22;9099;47.958;11.366;2022-08-19T09:18:12;19.30;99.90
17948;DHT22;9099;47.958;11.366;2022-08-19T09:20:39;19.20;99.90
17948;DHT22;9099;47.958;11.366;2022-08-19T09:23:06;19.20;99.90
17948;DHT22;9099;47.958;11.366;2022-08-19T09:25:34;19.30;99.90
17948;DHT22;9099;47.958;11.366;2022-08-19T09:28:02;19.40;99.90
17948;DHT22;9099;47.958;11.366;2022-08-19T09:30:31;19.40;99.90
17948;DHT22;9099;47.958;11.366;2022-08-19T09:32:58;19.50;99.90
17948;DHT22;9099;47.958;11.366;2022-08-19T09:35:27;19.40;99.90
17948;DHT22;9099;47.958;11.366;2022-08-19T09:37:56;19.40;99.90
17948;DHT22;9099;47.958;11.366;2022-08-19T09:40:23;19.30;99.90
17948;DHT22;9099;47.958;11.366;2022-08-19T09:42:51;19.30;99.90
17948;DHT22;9099;47.958;11.366;2022-08-19T09:45:21;19.30;99.90
17948;DHT22;9099;47.958;11.366;2022-08-19T09:47:49;19.50;99.90
17948;DHT22;9099;47.958;11.366;2022-08-19T09:50:16;19.70;99.90
17948;DHT22;9099;47.958;11.366;2022-08-19T09:52:43;19.80;99.90
17948;DHT22;9099;47.958;11.366;2022-08-19T09:55:11;19.90;99.90
17948;DHT22;9099;47.958;11.366;2022-08-19T09:57:38;20.10;99.90
17948;DHT22;9099;47.958;11.366;2022-08-19T10:00:07;19.90;99.90
17948;DHT22;9099;47.958;11.366;2022-08-19T10:02:36;19.80;99.90
17948;DHT22;9099;47.958;11.366;2022-08-19T10:05:04;19.80;99.90
17948;DHT22;9099;47.958;11.366;2022-08-19T10:07:49;19.80;99.90
17948;DHT22;9099;47.958;11.366;2022-08-19T10:10:17;19.60;99.90
17948;DHT22;9099;47.958;11.366;2022-08-19T10:12:44;19.50;99.90
17948;DHT22;9099;47.958;11.366;2022-08-19T10:15:13;19.40;99.90
17948;DHT22;9099;47.958;11.366;2022-08-19T10:17:41;19.40;99.90
17948;DHT22;9099;47.958;11.366;2022-08-19T10:20:09;19.50;99.90
17948;DHT22;9099;47.958;11.366;2022-08-19T10:22:36;19.70;99.90
17948;DHT22;9099;47.958;11.366;2022-08-19T10:25:05;19.80;99.90
17948;DHT22;9099;47.958;11.366;2022-08-19T10:27:32;19.80;99.90
17948;DHT22;9099;47.958;11.366;2022-08-19T10:29:59;20.00;99.90
17948;DHT22;9099;47.958;11.366;2022-08-19T10:32:26;20.40;99.90
17948;DHT22;9099;47.958;11.366;2022-08-19T10:34:56;21.40;99.90
17948;DHT22;9099;47.958;11.366;2022-08-19T10:37:23;22.40;99.90
17948;DHT22;9099;47.958;11.366;2022-08-19T10:39:50;22.50;99.90
17948;DHT22;9099;47.958;11.366;2022-08-19T10:42:17;22.90;99.90
17948;DHT22;9099;47.958;11.366;2022-08-19T10:44:44;23.20;99.90
17948;DHT22;9099;47.958;11.366;2022-08-19T10:47:14;23.40;99.90
17948;DHT22;9099;47.958;11.366;2022-08-19T10:49:41;23.70;99.90
17948;DHT22;9099;47.958;11.366;2022-08-19T10:52:23;23.70;99.90
17948;DHT22;9099;47.958;11.366;2022-08-19T10:55:04;23.70;99.90
17948;DHT22;9099;47.958;11.366;2022-08-19T10:57:49;23.70;99.90
17948;DHT22;9099;47.958;11.366;2022-08-19T11:00:17;23.50;99.90
17948;DHT22;9099;47.958;11.366;2022-08-19T11:02:44;23.30;99.90
17948;DHT22;9099;47.958;11.366;2022-08-19T11:05:11;23.10;99.90
17948;DHT22;9099;47.958;11.366;2022-08-19T11:07:42;23.00;99.90
17948;DHT22;9099;47.958;11.366;2022-08-19T11:10:11;22.90;99.90
17948;DHT22;9099;47.958;11.366;2022-08-19T11:12:40;22.80;99.90
17948;DHT22;9099;47.958;11.366;2022-08-19T11:15:09;22.40;99.90
17948;DHT22;9099;47.958;11.366;2022-08-19T11:17:37;22.20;99.90
17948;DHT22;9099;47.958;11.366;2022-08-19T11:20:06;21.90;99.90
17948;DHT22;9099;47.958;11.366;2022-08-19T11:22:33;21.80;99.90
17948;DHT22;9099;47.958;11.366;2022-08-19T11:25:02;21.80;99.90
17948;DHT22;9099;47.958;11.366;2022-08-19T11:27:30;21.80;99.90
17948;DHT22;9099;47.958;11.366;2022-08-19T11:29:57;21.90;99.90
17948;DHT22;9099;47.958;11.366;2022-08-19T11:32:23;22.00;99.90
17948;DHT22;9099;47.958;11.366;2022-08-19T11:34:50;22.00;99.90
17948;DHT22;9099;47.958;11.366;2022-08-19T11:37:17;22.10;99.90
17948;DHT22;9099;47.958;11.366;2022-08-19T11:39:44;22.40;99.90
17948;DHT22;9099;47.958;11.366;2022-08-19T11:42:13;22.50;99.90
17948;DHT22;9099;47.958;11.366;2022-08-19T11:44:57;22.60;99.90
17948;DHT22;9099;47.958;11.366;2022-08-19T11:47:24;22.70;99.90
17948;DHT22;9099;47.958;11.366;2022-08-19T11:49:51;22.70;99.90
17948;DHT22;9099;47.958;11.366;2022-08-19T11:52:18;23.00;99.90
17948;DHT22;9099;47.958;11.366;2022-08-19T11:54:45;23.00;99.90
17948;DHT22;9099;47.958;11.366;2022-08-19T11:57:14;22.80;99.90
17948;DHT22;9099;47.958;11.366;2022-08-19T11:59:42;22.80;99.90
17948;DHT22;9099;47.958;11.366;2022-08-19T12:02:09;22.70;99.90
17948;DHT22;9099;47.958;11.366;2022-08-19T12:04:36;22.60;99.90
17948;DHT22;9099;47.958;11.366;2022-08-19T12:07:03;22.60;99.90
17948;DHT22;9099;47.958;11.366;2022-08-19T12:09:30;22.40;99.90
17948;DHT22;9099;47.958;11.366;2022-08-19T12:11:57;22.30;99.90
17948;DHT22;9099;47.958;11.366;2022-08-19T12:14:26;22.10;99.90
17948;DHT22;9099;47.958;11.366;2022-08-19T12:16:53;21.90;99.90
17948;DHT22;9099;47.958;11.366;2022-08-19T12:19:20;21.70;99.90
17948;DHT22;9099;47.958;11.366;2022-08-19T12:21:47;21.50;99.90
17948;DHT22;9099;47.958;11.366;2022-08-19T12:24:14;21.50;99.90
17948;DHT22;9099;47.958;11.366;2022-08-19T12:26:41;21.30;99.90
17948;DHT22;9099;47.958;11.366;2022-08-19T12:29:07;21.30;99.90
17948;DHT22;9099;47.958;11.366;2022-08-19T12:31:36;21.20;99.90
17948;DHT22;9099;47.958;11.366;2022-08-19T12:34:03;21.10;99.90
17948;DHT22;9099;47.958;11.366;2022-08-19T12:36:29;21.10;99.90
17948;DHT22;9099;47.958;11.366;2022-08-19T12:38:58;21.20;99.90
17948;DHT22;9099;47.958;11.366;2022-08-19T12:41:25;21.20;99.90
17948;DHT22;9099;47.958;11.366;2022-08-19T12:43:52;21.20;99.90
17948;DHT22;9099;47.958;11.366;2022-08-19T12:46:19;21.20;99.90
17948;DHT22;9099;47.958;11.366;2022-08-19T12:48:48;21.10;99.90
17948;DHT22;9099;47.958;11.366;2022-08-19T12:51:17;21.20;99.90
17948;DHT22;9099;47.958;11.366;2022-08-19T12:53:45;21.20;99.90
17948;DHT22;9099;47.958;11.366;2022-08-19T12:56:12;21.20;99.90
17948;DHT22;9099;47.958;11.366;2022-08-19T12:58:40;21.30;99.90
17948;DHT22;9099;47.958;11.366;2022-08-19T13:01:09;21.50;99.90
17948;DHT22;9099;47.958;11.366;2022-08-19T13:03:37;21.80;99.90
17948;DHT22;9099;47.958;11.366;2022-08-19T13:06:05;21.90;99.90
17948;DHT22;9099;47.958;11.366;2022-08-19T13:08:32;22.20;99.90
17948;DHT22;9099;47.958;11.366;2022-08-19T13:11:07;22.50;99.90
17948;DHT22;9099;47.958;11.366;2022-08-19T13:13:36;23.10;99.90
17948;DHT22;9099;47.958;11.366;2022-08-19T13:16:07;23.40;99.90
17948;DHT22;9099;47.958;11.366;2022-08-19T13:18:35;23.50;99.90
17948;DHT22;9099;47.958;11.366;2022-08-19T13:21:05;23.70;99.90
17948;DHT22;9099;47.958;11.366;2022-08-19T13:23:33;23.90;99.90
17948;DHT22;9099;47.958;11.366;2022-08-19T13:26:03;23.90;99.90
17948;DHT22;9099;47.958;11.366;2022-08-19T13:28:30;24.10;99.90
17948;DHT22;9099;47.958;11.366;2022-08-19T13:31:18;24.20;99.90
17948;DHT22;9099;47.958;11.366;2022-08-19T13:34:03;24.10;99.90
17948;DHT22;9099;47.958;11.366;2022-08-19T13:36:32;24.10;99.90
17948;DHT22;9099;47.958;11.366;2022-08-19T13:38:59;23.80;99.90
17948;DHT22;9099;47.958;11.366;2022-08-19T13:41:26;23.60;99.90
17948;DHT22;9099;47.958;11.366;2022-08-19T13:43:54;23.50;99.90
17948;DHT22;9099;47.958;11.366;2022-08-19T13:46:21;23.30;99.90
17948;DHT22;9099;47.958;11.366;2022-08-19T13:48:48;23.20;99.90
17948;DHT22;9099;47.958;11.366;2022-08-19T13:51:16;23.20;99.90
17948;DHT22;9099;47.958;11.366;2022-08-19T13:53:45;23.40;99.90
17948;DHT22;9099;47.958;11.366;2022-08-19T13:56:14;23.50;99.90
17948;DHT22;9099;47.958;11.366;2022-08-19T13:58:41;23.70;99.90
17948;DHT22;9099;47.958;11.366;2022-08-19T14:01:09;23.70;99.90
17948;DHT22;9099;47.958;11.366;2022-08-19T14:03:37;23.80;99.90
17948;DHT22;9099;47.958;11.366;2022-08-19T14:06:04;23.80;99.90
17948;DHT22;9099;47.958;11.366;2022-08-19T14:08:31;23.70;99.90
17948;DHT22;9099;47.958;11.366;2022-08-19T14:11:00;23.70;99.90
17948;DHT22;9099;47.958;11.366;2022-08-19T14:13:26;23.40;99.90
17948;DHT22;9099;47.958;11.366;2022-08-19T14:15:53;23.30;99.90
17948;DHT22;9099;47.958;11.366;2022-08-19T14:18:21;23.10;99.90
17948;DHT22;9099;47.958;11.366;2022-08-19T14:20:48;23.00;99.90
17948;DHT22;9099;47.958;11.366;2022-08-19T14:23:15;23.00;99.90
17948;DHT22;9099;47.958;11.366;2022-08-19T14:25:42;23.00;99.90
17948;DHT22;9099;47.958;11.366;2022-08-19T14:28:11;23.00;99.90
17948;DHT22;9099;47.958;11.366;2022-08-19T14:30:38;23.00;99.90
17948;DHT22;9099;47.958;11.366;2022-08-19T14:33:06;23.10;99.90
17948;DHT22;9099;47.958;11.366;2022-08-19T14:35:34;23.20;99.90
17948;DHT22;9099;47.958;11.366;2022-08-19T14:38:02;23.20;99.90
17948;DHT22;9099;47.958;11.366;2022-08-19T14:40:30;23.20;99.90
17948;DHT22;9099;47.958;11.366;2022-08-19T14:43:00;23.20;99.90
17948;DHT22;9099;47.958;11.366;2022-08-19T14:45:32;22.90;99.90
17948;DHT22;9099;47.958;11.366;2022-08-19T14:47:59;22.90;99.90
17948;DHT22;9099;47.958;11.366;2022-08-19T14:50:26;22.90;99.90
17948;DHT22;9099;47.958;11.366;2022-08-19T14:52:58;22.80;99.90
17948;DHT22;9099;47.958;11.366;2022-08-19T14:55:26;22.80;99.90
17948;DHT22;9099;47.958;11.366;2022-08-19T14:57:53;22.70;99.90
17948;DHT22;9099;47.958;11.366;2022-08-19T15:00:20;22.60;99.90
17948;DHT22;9099;47.958;11.366;2022-08-19T15:02:50;22.60;99.90
17948;DHT22;9099;47.958;11.366;2022-08-19T15:05:17;22.50;99.90
17948;DHT22;9099;47.958;11.366;2022-08-19T15:07:44;22.20;99.90
17948;DHT22;9099;47.958;11.366;2022-08-19T15:10:14;22.10;99.90
17948;DHT22;9099;47.958;11.366;2022-08-19T15:12:41;22.00;99.90
17948;DHT22;9099;47.958;11.366;2022-08-19T15:15:10;22.00;99.90
17948;DHT22;9099;47.958;11.366;2022-08-19T15:17:38;22.00;99.90
17948;DHT22;9099;47.958;11.366;2022-08-19T15:20:07;22.00;99.90
17948;DHT22;9099;47.958;11.366;2022-08-19T15:22:35;22.00;99.90
17948;DHT22;9099;47.958;11.366;2022-08-19T15:25:03;21.90;99.90
17948;DHT22;9099;47.958;11.366;2022-08-19T15:27:30;21.80;99.90
17948;DHT22;9099;47.958;11.366;2022-08-19T15:29:57;21.60;99.90
17948;DHT22;9099;47.958;11.366;2022-08-19T15:32:24;21.50;99.90
17948;DHT22;9099;47.958;11.366;2022-08-19T15:34:52;21.50;99.90
17948;DHT22;9099;47.958;11.366;2022-08-19T15:37:21;21.50;99.90
17948;DHT22;9099;47.958;11.366;2022-08-19T15:39:49;21.40;99.90